Kingston, New Jersey
Current Conditions -  °F | °C
As of 5:53 PM on Tuesday 27 Jan 2015 (Local Time) from KTTN Reporting Station
Broken Clouds Broken Clouds  
Wind Chill: 18°   Ceiling: 4400
Heat Index: 29°   Visibility: 10mi
Dew Point: 11°   Wind: 14mph
Humidity: 47%   Direction: 340°NNW
Pressure: 29.72"   Gusts: 18mph
Location:  40.38°N, 74.61°W
Report Text: KTTN 272253Z 34012G16KT 10SM BKN044 M02/M12 A2972 RMK AO2 SLP061 T10171117
Loading
Personal Weather Stations






























Interactive Weather Map New forecast layout! Learn more

10-Day Weather Forecast

Advertisements
Track Severe Weather on mobile